Time;durP1;ratioP1;P1;durP2;ratioP2;P2;SDS_P1;SDS_P2;PMS_P1;PMS_P2;Temp;Humidity;BMP_temperature;BMP_pressure;BME280_temperature;BME280_humidity;BME280_pressure;Samples;Min_cycle;Max_cycle;Signal;HPM_P1;HPM_P2
2023/08/11 00:02:17;;;;;;;4.07;2.40;;;19.20;99.90;;;;;;4863338;29;20571;-51
2023/08/11 00:04:43;;;;;;;6.57;3.17;;;19.20;99.90;;;;;;4863540;29;20178;-54
2023/08/11 00:07:10;;;;;;;2.97;2.20;;;19.20;99.90;;;;;;4863573;29;20273;-52
2023/08/11 00:09:35;;;;;;;4.97;3.17;;;19.10;99.90;;;;;;4863398;29;20235;-50
2023/08/11 00:12:02;;;;;;;2.75;2.50;;;19.10;99.90;;;;;;4863415;29;20190;-52
2023/08/11 00:14:27;;;;;;;4.13;2.92;;;19.10;99.90;;;;;;4863556;29;20243;-53
2023/08/11 00:16:53;;;;;;;3.50;2.88;;;19.10;99.90;;;;;;4863151;29;20182;-55
2023/08/11 00:19:18;;;;;;;5.10;2.80;;;19.00;99.90;;;;;;4863425;29;20509;-50
2023/08/11 00:21:44;;;;;;;3.85;2.75;;;19.10;99.90;;;;;;4863223;29;20548;-54
2023/08/11 00:24:11;;;;;;;6.45;3.08;;;19.00;99.90;;;;;;4863420;29;20178;-53
2023/08/11 00:26:37;;;;;;;3.08;2.78;;;19.00;99.90;;;;;;4863120;29;20211;-52
2023/08/11 00:29:02;;;;;;;3.25;2.53;;;19.00;99.90;;;;;;4862983;29;20178;-53
2023/08/11 00:31:29;;;;;;;3.38;3.08;;;18.90;99.90;;;;;;4862828;29;20177;-54
2023/08/11 00:33:55;;;;;;;4.65;2.75;;;19.00;99.90;;;;;;4863218;29;20202;-52
2023/08/11 00:36:21;;;;;;;6.28;2.83;;;19.00;99.90;;;;;;4862763;29;20229;-54
2023/08/11 00:38:47;;;;;;;7.28;3.20;;;18.90;99.90;;;;;;4863079;29;20632;-53
2023/08/11 00:41:14;;;;;;;3.22;2.80;;;18.80;99.90;;;;;;4862936;29;20218;-51
2023/08/11 00:43:40;;;;;;;4.65;2.90;;;18.80;99.90;;;;;;4862684;29;20186;-54
2023/08/11 00:46:11;;;;;;;5.47;3.03;;;18.80;99.90;;;;;;4862592;29;20517;-52
2023/08/11 00:48:41;;;;;;;4.38;3.08;;;18.80;99.90;;;;;;4862856;29;20182;-51
2023/08/11 00:51:09;;;;;;;5.00;3.40;;;18.70;99.90;;;;;;4862544;29;20715;-51
2023/08/11 00:53:36;;;;;;;3.58;3.28;;;18.70;99.90;;;;;;4862574;29;20198;-51
2023/08/11 00:56:03;;;;;;;3.90;3.08;;;18.70;99.90;;;;;;4862075;29;20716;-54
2023/08/11 00:58:30;;;;;;;5.32;3.42;;;18.70;99.90;;;;;;4862430;29;20208;-54
2023/08/11 01:00:57;;;;;;;7.97;3.47;;;18.70;99.90;;;;;;4862728;29;20206;-53
2023/08/11 01:03:23;;;;;;;4.45;3.20;;;18.60;99.90;;;;;;4862396;29;20203;-53
2023/08/11 01:06:05;;;;;;;6.97;3.40;;;18.60;99.90;;;;;;4862435;29;20209;-53
2023/08/11 01:08:40;;;;;;;4.45;3.00;;;18.60;99.90;;;;;;4862419;29;20671;-54
2023/08/11 01:11:25;;;;;;;5.75;3.20;;;18.60;99.90;;;;;;4862466;29;20169;-52
2023/08/11 01:14:02;;;;;;;3.00;2.63;;;18.60;99.90;;;;;;4862224;29;20178;-52
2023/08/11 01:16:29;;;;;;;4.90;3.20;;;18.70;99.90;;;;;;4862262;29;20608;-53
2023/08/11 01:18:55;;;;;;;6.35;3.55;;;18.70;99.90;;;;;;4845571;29;20605;-53
2023/08/11 01:21:24;;;;;;;5.60;3.65;;;18.60;99.90;;;;;;4861922;29;20740;-50
2023/08/11 01:23:50;;;;;;;4.78;3.40;;;18.60;99.90;;;;;;4861920;29;20221;-53
2023/08/11 01:26:15;;;;;;;4.13;3.17;;;18.60;99.90;;;;;;4861922;29;20175;-53
2023/08/11 01:28:42;;;;;;;6.32;3.28;;;18.60;99.90;;;;;;4862019;29;20554;-50
2023/08/11 01:31:08;;;;;;;5.22;3.28;;;18.60;99.90;;;;;;4861985;29;20178;-54
2023/08/11 01:33:34;;;;;;;3.30;2.85;;;18.60;99.90;;;;;;4861854;29;20273;-52
2023/08/11 01:35:59;;;;;;;4.25;3.17;;;18.60;99.90;;;;;;4845209;29;20779;-54
2023/08/11 01:38:25;;;;;;;3.95;3.33;;;18.60;99.90;;;;;;4861987;29;20179;-54
2023/08/11 01:40:51;;;;;;;6.47;3.28;;;18.60;99.90;;;;;;4861811;29;20178;-54
2023/08/11 01:43:17;;;;;;;4.32;3.10;;;18.60;99.90;;;;;;4861842;29;20189;-53
2023/08/11 01:45:43;;;;;;;6.45;3.40;;;18.60;99.90;;;;;;4861708;29;20206;-53
2023/08/11 01:48:10;;;;;;;5.82;3.30;;;18.50;99.90;;;;;;4861609;29;20540;-52
2023/08/11 01:50:37;;;;;;;5.90;3.35;;;18.50;99.90;;;;;;4861515;29;20174;-52
2023/08/11 01:53:03;;;;;;;4.32;3.30;;;18.50;99.90;;;;;;4861511;29;20186;-54
2023/08/11 01:55:29;;;;;;;5.15;2.95;;;18.40;99.90;;;;;;4861539;29;20636;-55
2023/08/11 01:57:55;;;;;;;4.93;3.33;;;18.40;99.90;;;;;;4861491;29;20197;-54
2023/08/11 02:00:21;;;;;;;3.50;3.20;;;18.30;99.90;;;;;;4844842;29;20186;-51
2023/08/11 02:02:47;;;;;;;7.30;3.28;;;18.30;99.90;;;;;;4861317;29;20206;-52
2023/08/11 02:05:15;;;;;;;4.95;3.72;;;18.30;99.90;;;;;;4861281;29;20650;-53
2023/08/11 02:07:42;;;;;;;3.33;2.95;;;18.30;99.90;;;;;;4860680;29;20513;-54
2023/08/11 02:10:08;;;;;;;3.53;3.20;;;18.30;99.90;;;;;;4861201;29;20178;-52
2023/08/11 02:12:36;;;;;;;4.15;3.10;;;18.30;99.90;;;;;;4844601;29;20194;-53
2023/08/11 02:15:04;;;;;;;3.88;3.47;;;18.30;99.90;;;;;;4861203;29;20185;-53
2023/08/11 02:17:31;;;;;;;5.93;3.35;;;18.20;99.90;;;;;;4861272;29;20179;-53
2023/08/11 02:19:58;;;;;;;3.85;3.42;;;18.20;99.90;;;;;;4861086;29;20194;-51
2023/08/11 02:22:24;;;;;;;3.92;3.00;;;18.20;99.90;;;;;;4861252;29;20815;-53
2023/08/11 02:24:49;;;;;;;4.95;3.28;;;18.10;99.90;;;;;;4861234;29;20178;-54
2023/08/11 02:27:15;;;;;;;4.88;3.28;;;18.10;99.90;;;;;;4862286;29;20178;-53
2023/08/11 02:29:41;;;;;;;4.97;3.17;;;18.10;99.90;;;;;;4861065;29;20655;-54
2023/08/11 02:32:07;;;;;;;4.80;3.15;;;18.10;99.90;;;;;;4860978;29;20186;-54
2023/08/11 02:34:33;;;;;;;3.50;3.03;;;18.00;99.90;;;;;;4860871;29;20198;-54
2023/08/11 02:36:59;;;;;;;3.90;3.10;;;18.00;99.90;;;;;;4861026;29;20236;-54
2023/08/11 02:39:25;;;;;;;5.70;3.20;;;17.90;99.90;;;;;;4860945;29;20606;-54
2023/08/11 02:41:50;;;;;;;5.05;2.97;;;17.80;99.90;;;;;;4860934;29;20687;-53
2023/08/11 02:44:16;;;;;;;5.22;3.20;;;17.90;99.90;;;;;;4860843;29;20601;-55
2023/08/11 02:46:42;;;;;;;3.90;3.45;;;17.80;99.90;;;;;;4860831;29;20265;-53
2023/08/11 02:49:07;;;;;;;3.30;2.90;;;17.80;99.90;;;;;;4860710;29;20269;-54
2023/08/11 02:51:34;;;;;;;3.15;2.85;;;17.80;99.90;;;;;;4861056;29;20264;-53
2023/08/11 02:54:00;;;;;;;7.22;3.58;;;17.70;99.90;;;;;;4860914;29;20190;-54
2023/08/11 02:56:26;;;;;;;3.78;3.10;;;17.70;99.90;;;;;;4860828;29;20281;-53
2023/08/11 02:58:52;;;;;;;4.18;3.10;;;17.70;99.90;;;;;;4860764;29;20257;-55
2023/08/11 03:01:18;;;;;;;4.65;3.50;;;17.70;99.90;;;;;;4860637;29;20224;-54
2023/08/11 03:03:44;;;;;;;4.00;3.60;;;17.70;99.90;;;;;;4860622;29;20178;-53
2023/08/11 03:06:13;;;;;;;6.00;3.70;;;17.60;99.90;;;;;;4860676;29;20234;-54
2023/08/11 03:08:40;;;;;;;5.65;3.78;;;17.60;99.90;;;;;;4860856;29;20181;-52
2023/08/11 03:11:05;;;;;;;5.30;3.45;;;17.60;99.90;;;;;;4861025;29;20815;-53
2023/08/11 03:13:31;;;;;;;6.45;4.10;;;17.70;99.90;;;;;;4860789;29;20294;-52
2023/08/11 03:15:58;;;;;;;6.40;3.70;;;17.70;99.90;;;;;;4860577;29;20186;-52
2023/08/11 03:18:25;;;;;;;4.30;3.90;;;17.70;99.90;;;;;;4860806;29;20235;-54
2023/08/11 03:20:52;;;;;;;5.72;3.90;;;17.60;99.90;;;;;;4863704;29;20189;-54
2023/08/11 03:23:18;;;;;;;5.38;3.67;;;17.60;99.90;;;;;;4864253;29;20186;-54
2023/08/11 03:25:44;;;;;;;7.63;3.97;;;17.70;99.90;;;;;;4864206;29;20580;-52
2023/08/11 03:28:10;;;;;;;4.72;3.90;;;17.60;99.90;;;;;;4864106;29;20268;-52
2023/08/11 03:30:36;;;;;;;5.63;3.67;;;17.60;99.90;;;;;;4863962;29;20330;-54
2023/08/11 03:33:01;;;;;;;5.63;4.00;;;17.60;99.90;;;;;;4864193;29;20186;-51
2023/08/11 03:35:27;;;;;;;5.32;4.10;;;17.50;99.90;;;;;;4863873;29;20191;-53
2023/08/11 03:37:53;;;;;;;4.97;4.25;;;17.50;99.90;;;;;;4864047;29;20565;-52
2023/08/11 03:40:19;;;;;;;4.35;3.80;;;17.50;99.90;;;;;;4863949;29;20182;-54
2023/08/11 03:42:44;;;;;;;5.90;4.28;;;17.40;99.90;;;;;;4863808;29;20308;-53
2023/08/11 03:45:12;;;;;;;4.20;3.85;;;17.50;99.90;;;;;;4863609;29;20624;-52
2023/08/11 03:47:39;;;;;;;7.07;4.20;;;17.50;99.90;;;;;;4863675;29;20181;-53
2023/08/11 03:50:06;;;;;;;6.65;3.83;;;17.40;99.90;;;;;;4863803;29;20213;-51
2023/08/11 03:52:32;;;;;;;5.13;3.83;;;17.40;99.90;;;;;;4863731;29;20186;-54
2023/08/11 03:54:58;;;;;;;6.57;4.13;;;17.40;99.90;;;;;;4863706;29;20277;-54
2023/08/11 03:57:25;;;;;;;5.05;4.05;;;17.40;99.90;;;;;;4863596;29;20687;-54
2023/08/11 03:59:51;;;;;;;6.35;3.85;;;17.40;99.90;;;;;;4863489;29;20185;-52
2023/08/11 04:02:17;;;;;;;5.75;3.63;;;17.30;99.90;;;;;;4863267;29;20570;-52
2023/08/11 04:04:44;;;;;;;4.35;3.90;;;17.30;99.90;;;;;;4863592;29;20186;-54
2023/08/11 04:07:09;;;;;;;4.75;3.70;;;17.30;99.90;;;;;;4863440;29;20182;-52
2023/08/11 04:09:39;;;;;;;4.80;3.90;;;17.30;99.90;;;;;;4863337;29;20250;-51
2023/08/11 04:12:06;;;;;;;5.43;3.55;;;17.30;99.90;;;;;;4863293;29;20221;-53
2023/08/11 04:14:32;;;;;;;3.80;3.45;;;17.30;99.90;;;;;;4863240;29;20234;-52
2023/08/11 04:16:57;;;;;;;6.18;3.70;;;17.30;99.90;;;;;;4863771;29;20624;-54
2023/08/11 04:19:23;;;;;;;4.72;3.70;;;17.30;99.90;;;;;;4863247;29;20218;-52
2023/08/11 04:21:49;;;;;;;8.90;4.10;;;17.30;99.90;;;;;;4863180;29;20268;-53
2023/08/11 04:24:15;;;;;;;4.53;3.92;;;17.30;99.90;;;;;;4863212;29;20186;-54
2023/08/11 04:26:41;;;;;;;4.70;4.05;;;17.30;99.90;;;;;;4862962;29;20222;-55
2023/08/11 04:29:06;;;;;;;5.60;4.32;;;17.40;99.90;;;;;;4862934;29;20213;-55
2023/08/11 04:31:32;;;;;;;6.82;4.18;;;17.30;99.90;;;;;;4862480;29;20190;-51
2023/08/11 04:33:58;;;;;;;10.73;4.47;;;17.30;99.90;;;;;;4863035;29;20190;-54
2023/08/11 04:36:23;;;;;;;7.68;4.18;;;17.30;99.90;;;;;;4863084;29;20810;-53
2023/08/11 04:38:49;;;;;;;6.68;4.00;;;17.20;99.90;;;;;;4862922;29;20180;-54
2023/08/11 04:41:14;;;;;;;7.53;3.88;;;17.30;99.90;;;;;;4862771;29;20236;-52
2023/08/11 04:43:40;;;;;;;7.30;4.25;;;17.30;99.90;;;;;;4862644;29;20185;-53
2023/08/11 04:46:06;;;;;;;4.72;3.88;;;17.20;99.90;;;;;;4845631;29;20648;-54
2023/08/11 04:48:31;;;;;;;6.88;4.35;;;17.30;99.90;;;;;;4857477;29;20636;-53
2023/08/11 04:50:58;;;;;;;6.50;4.13;;;17.20;99.90;;;;;;4860453;29;20541;-54
2023/08/11 04:53:24;;;;;;;5.93;4.03;;;17.30;99.90;;;;;;4861091;29;20202;-54
2023/08/11 04:55:51;;;;;;;6.30;4.20;;;17.20;99.90;;;;;;4862121;29;20191;-53
2023/08/11 04:58:18;;;;;;;5.80;4.00;;;17.20;99.90;;;;;;4862208;29;20206;-52
2023/08/11 05:00:43;;;;;;;4.93;4.40;;;17.30;99.90;;;;;;4862228;29;20178;-51
2023/08/11 05:03:09;;;;;;;4.80;4.05;;;17.30;99.90;;;;;;4862215;29;20211;-54
2023/08/11 05:05:35;;;;;;;4.88;4.10;;;17.30;99.90;;;;;;4862543;29;20190;-50
2023/08/11 05:08:01;;;;;;;5.20;3.60;;;17.30;99.90;;;;;;4862400;29;20178;-52
2023/08/11 05:10:27;;;;;;;6.72;4.00;;;17.40;99.90;;;;;;4862343;29;20648;-51
2023/08/11 05:12:53;;;;;;;6.80;3.85;;;17.40;99.90;;;;;;4862148;29;20277;-52
2023/08/11 05:15:18;;;;;;;4.85;3.88;;;17.40;99.90;;;;;;4862427;29;20238;-53
2023/08/11 05:17:45;;;;;;;6.63;3.80;;;17.50;99.90;;;;;;4845844;29;20724;-51
2023/08/11 05:20:11;;;;;;;4.97;3.85;;;17.60;99.90;;;;;;4862407;29;20190;-53
2023/08/11 05:22:37;;;;;;;5.20;3.60;;;17.60;99.90;;;;;;4862072;29;20217;-51
2023/08/11 05:25:04;;;;;;;3.85;3.55;;;17.70;99.90;;;;;;4861664;29;20230;-52
2023/08/11 05:27:30;;;;;;;4.72;3.58;;;17.70;99.90;;;;;;4861854;29;20189;-51
2023/08/11 05:29:56;;;;;;;6.97;3.80;;;17.80;99.90;;;;;;4862098;29;20190;-51
2023/08/11 05:32:23;;;;;;;6.43;3.60;;;17.80;99.90;;;;;;4862051;29;20185;-53
2023/08/11 05:34:49;;;;;;;5.82;3.70;;;17.80;99.90;;;;;;4861733;29;20715;-52
2023/08/11 05:37:15;;;;;;;4.28;3.63;;;17.90;99.90;;;;;;4861133;29;20242;-52
2023/08/11 05:39:42;;;;;;;4.45;3.53;;;18.00;99.90;;;;;;4861915;29;20203;-47
2023/08/11 05:42:08;;;;;;;5.03;3.22;;;18.00;99.90;;;;;;4861430;29;20214;-53
2023/08/11 05:44:34;;;;;;;3.58;3.08;;;18.20;99.90;;;;;;4861844;29;20310;-52
2023/08/11 05:47:00;;;;;;;5.78;3.63;;;18.30;99.90;;;;;;4861749;29;20268;-47
2023/08/11 05:49:26;;;;;;;6.15;3.25;;;18.40;99.90;;;;;;4860778;29;20655;-50
2023/08/11 05:51:52;;;;;;;5.97;3.05;;;18.50;99.90;;;;;;4845052;29;20190;-52
2023/08/11 05:54:17;;;;;;;3.67;3.22;;;18.60;99.90;;;;;;4861626;29;20209;-52
2023/08/11 05:56:43;;;;;;;4.68;3.10;;;18.60;99.90;;;;;;4861359;29;20174;-49
2023/08/11 05:59:09;;;;;;;4.85;3.20;;;18.70;99.90;;;;;;4861371;29;20202;-51
2023/08/11 06:01:35;;;;;;;3.20;2.83;;;18.80;99.90;;;;;;4861486;29;20225;-49
2023/08/11 06:04:01;;;;;;;4.63;3.35;;;18.90;99.90;;;;;;4861473;29;20224;-51
2023/08/11 06:06:27;;;;;;;4.93;3.03;;;19.00;99.90;;;;;;4861325;29;20210;-51
2023/08/11 06:08:54;;;;;;;6.60;3.35;;;19.10;99.90;;;;;;4861055;29;20218;-53
2023/08/11 06:11:21;;;;;;;3.45;2.88;;;19.10;99.90;;;;;;4861250;29;20208;-52
2023/08/11 06:13:46;;;;;;;4.57;3.20;;;19.30;99.90;;;;;;4860546;29;20636;-48
2023/08/11 06:16:12;;;;;;;4.25;3.47;;;19.40;99.90;;;;;;4861483;29;20189;-52
2023/08/11 06:18:38;;;;;;;4.50;3.20;;;19.50;99.90;;;;;;4861284;29;20536;-53
2023/08/11 06:21:04;;;;;;;3.72;3.00;;;19.60;99.90;;;;;;4861378;29;20678;-53
2023/08/11 06:23:32;;;;;;;4.80;3.13;;;19.70;99.90;;;;;;4861145;29;20683;-51
2023/08/11 06:25:58;;;;;;;5.25;3.10;;;19.80;99.90;;;;;;4861075;29;20182;-53
2023/08/11 06:28:23;;;;;;;4.15;2.78;;;19.90;99.90;;;;;;4861299;29;20174;-50
2023/08/11 06:30:49;;;;;;;3.38;2.53;;;20.00;99.90;;;;;;4861099;29;20624;-51
2023/08/11 06:33:15;;;;;;;3.90;2.88;;;20.10;99.90;;;;;;4861145;29;20186;-52
2023/08/11 06:35:42;;;;;;;4.40;2.95;;;20.20;99.90;;;;;;4860767;29;20229;-50
2023/08/11 06:38:09;;;;;;;5.35;3.10;;;20.40;99.90;;;;;;4861307;29;20680;-53
2023/08/11 06:40:35;;;;;;;4.05;2.70;;;20.40;99.90;;;;;;4860755;29;20652;-51
2023/08/11 06:43:01;;;;;;;4.10;2.83;;;20.60;99.90;;;;;;4861045;29;20233;-49
2023/08/11 06:45:27;;;;;;;6.30;2.80;;;20.70;99.90;;;;;;4861095;29;20186;-49
2023/08/11 06:47:53;;;;;;;6.20;3.25;;;20.70;99.90;;;;;;4860907;29;20525;-50
2023/08/11 06:50:19;;;;;;;7.13;3.15;;;20.80;99.90;;;;;;4860849;29;20182;-52
2023/08/11 06:52:45;;;;;;;4.75;2.97;;;20.90;99.90;;;;;;4860809;29;20204;-51
2023/08/11 06:55:10;;;;;;;4.03;2.75;;;21.20;99.90;;;;;;4846392;29;20265;-49
2023/08/11 06:57:37;;;;;;;4.55;2.60;;;21.20;99.90;;;;;;4864786;29;20190;-51
2023/08/11 07:00:04;;;;;;;7.97;3.03;;;21.20;99.90;;;;;;4864704;29;20178;-51
2023/08/11 07:02:29;;;;;;;6.25;2.75;;;21.10;99.90;;;;;;4864551;29;20366;-52
2023/08/11 07:04:55;;;;;;;4.22;2.70;;;21.20;99.90;;;;;;4864646;29;20298;-52
2023/08/11 07:07:21;;;;;;;4.43;2.60;;;21.30;99.90;;;;;;4864525;29;20665;-53
2023/08/11 07:09:47;;;;;;;4.65;2.88;;;21.30;99.90;;;;;;4864357;29;20174;-53
2023/08/11 07:12:13;;;;;;;4.45;2.50;;;21.50;99.90;;;;;;4864605;29;20188;-54
2023/08/11 07:14:40;;;;;;;6.22;2.85;;;21.60;99.90;;;;;;4864316;29;20222;-53
2023/08/11 07:17:06;;;;;;;5.03;2.45;;;21.80;99.90;;;;;;4864433;29;20259;-52
2023/08/11 07:19:31;;;;;;;5.55;2.55;;;21.90;99.90;;;;;;4864284;29;20643;-52
2023/08/11 07:21:57;;;;;;;5.07;2.65;;;22.10;99.90;;;;;;4864206;29;20210;-48
2023/08/11 07:24:22;;;;;;;4.55;2.22;;;22.30;99.90;;;;;;4864403;29;20186;-52
2023/08/11 07:26:48;;;;;;;2.72;2.40;;;22.40;99.90;;;;;;4864108;29;20242;-51
2023/08/11 07:29:14;;;;;;;3.92;2.22;;;22.50;99.90;;;;;;4864243;29;20247;-50
2023/08/11 07:31:39;;;;;;;3.20;2.22;;;22.70;99.90;;;;;;4864127;29;20597;-51
2023/08/11 07:34:05;;;;;;;4.05;2.47;;;22.70;99.90;;;;;;4864014;29;20277;-52
2023/08/11 07:36:31;;;;;;;3.40;2.45;;;22.50;99.90;;;;;;4864080;29;20254;-51
2023/08/11 07:38:57;;;;;;;4.03;2.63;;;22.80;99.90;;;;;;4863833;29;20242;-52
2023/08/11 07:41:23;;;;;;;3.78;2.58;;;22.90;99.90;;;;;;4863951;29;20679;-48
2023/08/11 07:43:48;;;;;;;4.40;2.65;;;22.90;99.90;;;;;;4847180;29;20226;-50
2023/08/11 07:46:14;;;;;;;4.35;2.30;;;23.20;99.90;;;;;;4863933;29;20209;-52
2023/08/11 07:48:39;;;;;;;3.35;2.53;;;23.10;99.90;;;;;;4863828;29;20576;-51
2023/08/11 07:51:05;;;;;;;5.82;2.47;;;23.00;99.90;;;;;;4863766;29;20273;-48
2023/08/11 07:53:31;;;;;;;4.07;2.45;;;22.80;99.90;;;;;;4863622;29;20182;-51
2023/08/11 07:55:58;;;;;;;5.57;2.35;;;22.90;99.90;;;;;;4863507;29;20190;-51
2023/08/11 07:58:23;;;;;;;5.40;2.20;;;22.80;99.90;;;;;;4863550;29;20182;-50
2023/08/11 08:00:49;;;;;;;8.55;2.30;;;22.80;99.90;;;;;;4863570;29;20185;-53
2023/08/11 08:03:14;;;;;;;4.53;2.45;;;22.70;99.90;;;;;;4863566;29;20190;-52
2023/08/11 08:05:40;;;;;;;5.10;2.25;;;22.50;99.90;;;;;;4862544;29;20183;-52
2023/08/11 08:08:06;;;;;;;4.90;2.35;;;22.40;99.90;;;;;;4863161;29;20185;-52
2023/08/11 08:10:31;;;;;;;10.57;2.58;;;22.50;99.90;;;;;;4863334;29;20209;-51
2023/08/11 08:12:57;;;;;;;5.25;2.65;;;22.70;99.90;;;;;;4863507;29;20213;-51
2023/08/11 08:15:24;;;;;;;6.78;2.38;;;22.90;99.90;;;;;;4863373;29;20182;-52
2023/08/11 08:17:50;;;;;;;5.25;2.50;;;23.10;99.90;;;;;;4863266;29;20190;-52
2023/08/11 08:20:18;;;;;;;5.82;3.00;;;23.10;99.90;;;;;;4846601;29;20178;-51
2023/08/11 08:22:44;;;;;;;5.40;2.75;;;23.00;99.90;;;;;;4862986;29;20210;-51
2023/08/11 08:25:10;;;;;;;6.13;3.00;;;23.20;99.90;;;;;;4863318;29;20238;-53
2023/08/11 08:27:40;;;;;;;4.88;2.45;;;23.40;99.90;;;;;;4863318;29;20186;-47
2023/08/11 08:30:06;;;;;;;5.60;2.50;;;23.70;99.90;;;;;;4862954;29;20186;-50
2023/08/11 08:32:33;;;;;;;6.53;2.47;;;23.80;99.90;;;;;;4863113;29;20190;-55
2023/08/11 08:34:59;;;;;;;5.05;2.33;;;23.90;99.90;;;;;;4861811;29;20242;-49
2023/08/11 08:37:24;;;;;;;6.63;2.60;;;24.10;99.90;;;;;;4862806;29;20229;-50
2023/08/11 08:39:54;;;;;;;6.38;2.40;;;24.40;99.90;;;;;;4862756;29;20210;-50
2023/08/11 08:42:21;;;;;;;5.78;2.53;;;24.50;99.90;;;;;;4846141;29;20214;-53
2023/08/11 08:44:49;;;;;;;2.53;2.20;;;24.60;99.90;;;;;;4862908;29;20218;-53
2023/08/11 08:47:19;;;;;;;3.50;2.50;;;24.80;99.90;;;;;;4862752;29;20268;-52
2023/08/11 08:49:49;;;;;;;4.60;2.40;;;24.70;99.90;;;;;;4861239;29;20178;-49
2023/08/11 08:52:15;;;;;;;5.55;2.20;;;24.80;99.90;;;;;;4846443;29;20791;-50
2023/08/11 08:54:42;;;;;;;4.05;2.50;;;24.80;99.90;;;;;;4844161;29;20541;-52
2023/08/11 08:57:10;;;;;;;3.33;2.30;;;25.00;99.90;;;;;;4844202;29;20183;-51
2023/08/11 08:59:37;;;;;;;5.22;2.50;;;25.10;99.90;;;;;;4844170;29;20258;-53
2023/08/11 09:02:04;;;;;;;4.25;2.47;;;25.10;99.90;;;;;;4844004;29;20651;-51
2023/08/11 09:04:30;;;;;;;2.83;2.17;;;25.20;99.90;;;;;;4843855;29;20183;-52
2023/08/11 09:06:56;;;;;;;3.20;2.17;;;25.20;99.90;;;;;;4843858;29;20183;-52
2023/08/11 09:09:23;;;;;;;4.22;2.40;;;25.30;99.90;;;;;;4844053;29;20187;-49
2023/08/11 09:11:49;;;;;;;4.50;2.67;;;25.50;99.90;;;;;;4844003;29;20273;-53
2023/08/11 09:14:17;;;;;;;3.72;2.50;;;25.40;99.90;;;;;;4827493;29;20187;-52
2023/08/11 09:16:43;;;;;;;5.95;2.85;;;25.40;99.90;;;;;;4843618;29;20187;-53
2023/08/11 09:19:11;;;;;;;5.53;3.10;;;25.60;99.90;;;;;;4843609;29;20199;-53
2023/08/11 09:21:39;;;;;;;3.08;2.28;;;25.60;99.90;;;;;;4843898;29;20213;-53
2023/08/11 09:24:09;;;;;;;5.57;2.58;;;25.70;99.90;;;;;;4843919;29;20191;-53
2023/08/11 09:26:35;;;;;;;6.45;2.80;;;25.80;99.90;;;;;;4843645;29;20274;-49
2023/08/11 09:29:01;;;;;;;4.55;2.53;;;25.80;99.90;;;;;;4843546;29;20608;-52
2023/08/11 09:31:26;;;;;;;3.83;2.80;;;26.00;99.90;;;;;;4839727;29;20293;-52
2023/08/11 09:33:52;;;;;;;4.32;2.67;;;26.20;99.90;;;;;;4847394;29;20191;-54
2023/08/11 09:36:19;;;;;;;4.07;2.58;;;26.10;99.90;;;;;;4843635;29;20238;-52
2023/08/11 09:38:48;;;;;;;4.47;2.67;;;26.20;99.90;;;;;;4843441;29;20179;-51
2023/08/11 09:41:15;;;;;;;3.25;2.28;;;26.10;99.90;;;;;;4843309;29;20217;-51
2023/08/11 09:43:48;;;;;;;5.63;2.42;;;26.40;99.90;;;;;;4843299;29;20194;-51
2023/08/11 09:46:14;;;;;;;4.40;2.70;;;26.50;99.90;;;;;;4843050;29;20175;-53
2023/08/11 09:48:39;;;;;;;5.25;2.75;;;26.60;99.90;;;;;;4843402;29;20265;-52
2023/08/11 09:51:10;;;;;;;4.32;2.40;;;26.60;99.90;;;;;;4853761;29;20190;-53
2023/08/11 09:53:39;;;;;;;4.43;2.55;;;26.70;99.90;;;;;;4861562;29;20197;-51
2023/08/11 09:56:06;;;;;;;4.55;2.47;;;26.90;99.90;;;;;;4861350;29;20253;-52
2023/08/11 09:58:38;;;;;;;4.50;2.30;;;26.90;99.90;;;;;;4861724;29;20182;-52
2023/08/11 10:01:07;;;;;;;4.50;2.30;;;27.10;99.90;;;;;;4861450;29;20295;-51
2023/08/11 10:03:43;;;;;;;3.20;2.28;;;27.40;99.90;;;;;;4861619;29;20178;-52
2023/08/11 10:06:13;;;;;;;4.97;2.00;;;27.40;99.90;;;;;;4861505;29;20177;-53
2023/08/11 10:08:39;;;;;;;3.08;1.90;;;27.50;99.90;;;;;;4861705;29;20261;-51
2023/08/11 10:11:05;;;;;;;2.65;2.10;;;27.30;99.90;;;;;;4861326;29;20351;-52
2023/08/11 10:13:33;;;;;;;3.75;2.30;;;27.10;99.90;;;;;;4861173;29;20178;-53
2023/08/11 10:16:00;;;;;;;6.05;2.30;;;27.10;99.90;;;;;;4861211;29;20636;-52
2023/08/11 10:18:26;;;;;;;4.28;2.42;;;27.30;99.90;;;;;;4861370;29;20276;-53
2023/08/11 10:20:52;;;;;;;4.57;2.28;;;27.30;99.90;;;;;;4861173;29;20178;-53
2023/08/11 10:23:18;;;;;;;2.63;1.92;;;27.30;99.90;;;;;;4861234;29;20706;-53
2023/08/11 10:25:46;;;;;;;2.33;1.67;;;27.50;99.90;;;;;;4861014;29;20665;-52
2023/08/11 10:28:12;;;;;;;3.35;2.00;;;27.60;99.90;;;;;;4861157;29;20190;-53
2023/08/11 10:30:40;;;;;;;3.72;2.30;;;27.60;99.90;;;;;;4860924;29;20178;-51
2023/08/11 10:33:07;;;;;;;3.10;2.05;;;27.80;99.90;;;;;;4860887;29;20194;-51
2023/08/11 10:35:46;;;;;;;4.00;2.05;;;27.60;99.90;;;;;;4860987;29;20174;-53
2023/08/11 10:38:11;;;;;;;2.30;2.10;;;27.70;99.90;;;;;;4860972;29;20556;-52
2023/08/11 10:40:38;;;;;;;3.20;2.05;;;27.80;99.90;;;;;;4848801;29;20202;-52
2023/08/11 10:43:04;;;;;;;6.18;3.08;;;27.60;99.90;;;;;;4850483;29;20726;-51
2023/08/11 10:45:34;;;;;;;3.67;2.33;;;27.50;99.90;;;;;;4858044;29;20620;-51
2023/08/11 10:48:07;;;;;;;7.70;2.22;;;27.50;99.90;;;;;;4861041;29;20170;-53
2023/08/11 10:50:35;;;;;;;4.35;2.38;;;27.60;99.90;;;;;;4861055;29;20171;-52
2023/08/11 10:53:17;;;;;;;2.85;2.08;;;27.50;99.90;;;;;;4860949;29;20212;-52
2023/08/11 10:55:59;;;;;;;3.83;2.38;;;27.20;99.90;;;;;;4861091;29;20241;-51
2023/08/11 10:58:25;;;;;;;3.83;2.00;;;27.00;99.90;;;;;;4861064;29;20263;-48
2023/08/11 11:00:51;;;;;;;2.95;2.08;;;27.00;99.90;;;;;;4860885;29;20169;-53
2023/08/11 11:03:18;;;;;;;3.83;2.50;;;26.90;99.90;;;;;;4860814;29;20217;-53
2023/08/11 11:05:44;;;;;;;2.97;1.92;;;26.90;99.90;;;;;;4860709;29;20241;-52
2023/08/11 11:08:10;;;;;;;3.38;2.22;;;26.90;99.90;;;;;;4860826;29;20186;-53
2023/08/11 11:10:35;;;;;;;2.22;2.00;;;26.80;99.90;;;;;;4860803;29;20194;-49
2023/08/11 11:13:01;;;;;;;4.40;2.20;;;26.70;99.90;;;;;;4860776;29;20687;-53
2023/08/11 11:15:30;;;;;;;1.98;1.80;;;26.70;99.90;;;;;;4861021;29;20170;-53
2023/08/11 11:17:56;;;;;;;4.20;2.13;;;27.00;99.90;;;;;;4860727;29;20171;-52
2023/08/11 11:20:22;;;;;;;4.05;2.30;;;27.00;99.90;;;;;;4860554;29;20182;-52
2023/08/11 11:22:49;;;;;;;2.58;2.05;;;27.10;99.90;;;;;;4857898;29;20210;-52
2023/08/11 11:25:16;;;;;;;5.03;2.33;;;27.00;99.90;;;;;;4843885;29;20190;-53
2023/08/11 11:27:42;;;;;;;2.75;2.20;;;27.00;99.90;;;;;;4842330;29;20175;-53
2023/08/11 11:30:09;;;;;;;4.03;2.40;;;27.00;99.90;;;;;;4842370;29;20182;-54
2023/08/11 11:32:36;;;;;;;29.30;4.00;;;27.00;99.90;;;;;;4842078;29;20203;-54
2023/08/11 11:35:04;;;;;;;4.22;2.38;;;27.00;99.90;;;;;;4835658;29;20374;-50
2023/08/11 11:37:32;;;;;;;5.65;2.20;;;26.90;99.90;;;;;;4842195;29;20235;-54
2023/08/11 11:39:59;;;;;;;5.07;2.60;;;27.10;99.90;;;;;;4842437;29;20171;-52
2023/08/11 11:42:31;;;;;;;3.80;2.33;;;27.00;99.90;;;;;;4845538;29;20242;-54
2023/08/11 11:44:58;;;;;;;3.03;2.40;;;27.10;99.90;;;;;;4845483;29;20213;-52
2023/08/11 11:47:24;;;;;;;2.80;2.40;;;26.90;99.90;;;;;;4845405;29;20182;-53
2023/08/11 11:49:57;;;;;;;4.13;2.08;;;27.00;99.90;;;;;;4845486;29;20175;-53
2023/08/11 11:52:26;;;;;;;4.07;2.47;;;26.90;99.90;;;;;;4851307;29;20200;-53
2023/08/11 11:54:55;;;;;;;2.55;2.17;;;26.70;99.90;;;;;;4863896;29;20178;-52
2023/08/11 11:57:22;;;;;;;4.68;2.40;;;26.60;99.90;;;;;;4863679;29;20193;-51
2023/08/11 11:59:49;;;;;;;5.82;2.30;;;26.70;99.90;;;;;;4863616;29;20205;-50
2023/08/11 12:02:17;;;;;;;3.53;2.58;;;26.70;99.90;;;;;;4863459;29;20217;-53
2023/08/11 12:04:44;;;;;;;2.67;2.47;;;26.80;99.90;;;;;;4863730;29;20187;-53
2023/08/11 12:07:23;;;;;;;3.38;2.60;;;26.90;99.90;;;;;;4863747;29;20182;-51
2023/08/11 12:09:50;;;;;;;5.07;2.60;;;26.80;99.90;;;;;;4863754;29;20636;-52
2023/08/11 12:12:16;;;;;;;3.33;2.22;;;26.70;99.90;;;;;;4863352;29;20520;-52
2023/08/11 12:14:42;;;;;;;2.95;2.47;;;26.70;99.90;;;;;;4863334;29;20181;-53
2023/08/11 12:17:08;;;;;;;3.63;2.53;;;26.90;99.90;;;;;;4863254;29;20177;-49
2023/08/11 12:19:34;;;;;;;3.05;2.22;;;26.90;99.90;;;;;;4863230;29;20185;-52
2023/08/11 12:22:00;;;;;;;3.20;2.58;;;26.90;99.90;;;;;;4863331;29;20217;-54
2023/08/11 12:24:26;;;;;;;2.72;2.53;;;27.00;99.90;;;;;;4863292;29;20644;-51
2023/08/11 12:26:52;;;;;;;4.13;2.85;;;26.90;99.90;;;;;;4863216;29;20181;-51
2023/08/11 12:29:17;;;;;;;3.17;2.88;;;26.90;99.90;;;;;;4863067;29;20190;-53
2023/08/11 12:31:43;;;;;;;4.07;3.03;;;26.90;99.90;;;;;;4856759;29;20835;-51
2023/08/11 12:34:09;;;;;;;3.53;2.60;;;27.10;99.90;;;;;;4863136;29;20569;-53
2023/08/11 12:36:34;;;;;;;3.25;2.80;;;27.10;99.90;;;;;;4862882;29;20285;-51
2023/08/11 12:39:00;;;;;;;3.10;2.80;;;27.00;99.90;;;;;;4863048;29;20179;-53
2023/08/11 12:41:26;;;;;;;3.70;2.90;;;27.10;99.90;;;;;;4862939;29;20627;-52
2023/08/11 12:43:52;;;;;;;4.90;2.80;;;27.00;99.90;;;;;;4862778;29;20220;-53